sensor_id;sensor_type;location;lat;lon;timestamp;temperature;humidity
19166;DHT22;9715;48.816;10.520;2022-07-03T00:01:31;16.80;99.90
19166;DHT22;9715;48.816;10.520;2022-07-03T00:04:01;16.80;99.90
19166;DHT22;9715;48.816;10.520;2022-07-03T00:06:32;16.80;99.90
19166;DHT22;9715;48.816;10.520;2022-07-03T00:09:03;16.70;99.90
19166;DHT22;9715;48.816;10.520;2022-07-03T00:11:32;16.70;99.90
19166;DHT22;9715;48.816;10.520;2022-07-03T00:14:01;16.70;99.90
19166;DHT22;9715;48.816;10.520;2022-07-03T00:16:29;16.70;99.90
19166;DHT22;9715;48.816;10.520;2022-07-03T00:18:58;16.70;99.90
19166;DHT22;9715;48.816;10.520;2022-07-03T00:21:29;16.60;99.90
19166;DHT22;9715;48.816;10.520;2022-07-03T00:24:02;16.60;99.90
19166;DHT22;9715;48.816;10.520;2022-07-03T00:26:34;16.50;99.90
19166;DHT22;9715;48.816;10.520;2022-07-03T00:29:05;16.50;99.90
19166;DHT22;9715;48.816;10.520;2022-07-03T00:31:35;16.50;99.90
19166;DHT22;9715;48.816;10.520;2022-07-03T00:34:08;16.50;99.90
19166;DHT22;9715;48.816;10.520;2022-07-03T00:36:38;16.50;99.90
19166;DHT22;9715;48.816;10.520;2022-07-03T00:39:07;16.50;99.90
19166;DHT22;9715;48.816;10.520;2022-07-03T00:41:35;16.50;99.90
19166;DHT22;9715;48.816;10.520;2022-07-03T00:44:04;16.50;99.90
19166;DHT22;9715;48.816;10.520;2022-07-03T00:46:37;16.50;99.90
19166;DHT22;9715;48.816;10.520;2022-07-03T00:49:06;16.50;99.90
19166;DHT22;9715;48.816;10.520;2022-07-03T00:51:39;16.40;99.90
19166;DHT22;9715;48.816;10.520;2022-07-03T00:54:09;16.40;99.90
19166;DHT22;9715;48.816;10.520;2022-07-03T00:56:39;16.30;99.90
19166;DHT22;9715;48.816;10.520;2022-07-03T00:59:08;16.30;99.90
19166;DHT22;9715;48.816;10.520;2022-07-03T01:01:37;16.30;99.90
19166;DHT22;9715;48.816;10.520;2022-07-03T01:04:33;16.20;99.90
19166;DHT22;9715;48.816;10.520;2022-07-03T01:07:10;16.10;99.90
19166;DHT22;9715;48.816;10.520;2022-07-03T01:12:40;16.00;99.90
19166;DHT22;9715;48.816;10.520;2022-07-03T01:15:12;16.00;99.90
19166;DHT22;9715;48.816;10.520;2022-07-03T01:17:48;16.00;99.90
19166;DHT22;9715;48.816;10.520;2022-07-03T01:20:21;16.00;99.90
19166;DHT22;9715;48.816;10.520;2022-07-03T01:22:57;16.00;99.90
19166;DHT22;9715;48.816;10.520;2022-07-03T01:28:08;16.00;99.90
19166;DHT22;9715;48.816;10.520;2022-07-03T01:30:40;16.00;99.90
19166;DHT22;9715;48.816;10.520;2022-07-03T01:33:12;16.00;99.90
19166;DHT22;9715;48.816;10.520;2022-07-03T01:35:47;15.90;99.90
19166;DHT22;9715;48.816;10.520;2022-07-03T01:38:21;16.00;99.90
19166;DHT22;9715;48.816;10.520;2022-07-03T01:40:51;16.00;99.90
19166;DHT22;9715;48.816;10.520;2022-07-03T01:43:27;16.00;99.90
19166;DHT22;9715;48.816;10.520;2022-07-03T01:45:57;16.00;99.90
19166;DHT22;9715;48.816;10.520;2022-07-03T01:48:26;15.90;99.90
19166;DHT22;9715;48.816;10.520;2022-07-03T01:50:56;15.80;99.90
19166;DHT22;9715;48.816;10.520;2022-07-03T01:53:26;15.80;99.90
19166;DHT22;9715;48.816;10.520;2022-07-03T01:55:56;15.80;99.90
19166;DHT22;9715;48.816;10.520;2022-07-03T01:58:27;15.70;99.90
19166;DHT22;9715;48.816;10.520;2022-07-03T02:01:01;15.70;99.90
19166;DHT22;9715;48.816;10.520;2022-07-03T02:03:31;15.80;99.90
19166;DHT22;9715;48.816;10.520;2022-07-03T02:06:05;15.80;99.90
19166;DHT22;9715;48.816;10.520;2022-07-03T02:08:45;15.90;99.90
19166;DHT22;9715;48.816;10.520;2022-07-03T02:11:37;15.80;99.90
19166;DHT22;9715;48.816;10.520;2022-07-03T02:14:12;15.80;99.90
19166;DHT22;9715;48.816;10.520;2022-07-03T02:16:50;15.70;99.90
19166;DHT22;9715;48.816;10.520;2022-07-03T02:19:24;15.60;99.90
19166;DHT22;9715;48.816;10.520;2022-07-03T02:21:56;15.60;99.90
19166;DHT22;9715;48.816;10.520;2022-07-03T02:24:26;15.60;99.90
19166;DHT22;9715;48.816;10.520;2022-07-03T02:26:59;15.60;99.90
19166;DHT22;9715;48.816;10.520;2022-07-03T02:29:34;15.50;99.90
19166;DHT22;9715;48.816;10.520;2022-07-03T02:32:09;15.50;99.90
19166;DHT22;9715;48.816;10.520;2022-07-03T02:34:44;15.40;99.90
19166;DHT22;9715;48.816;10.520;2022-07-03T02:37:17;15.30;99.90
19166;DHT22;9715;48.816;10.520;2022-07-03T02:39:50;15.30;99.90
19166;DHT22;9715;48.816;10.520;2022-07-03T02:42:29;15.40;99.90
19166;DHT22;9715;48.816;10.520;2022-07-03T02:45:03;15.50;99.90
19166;DHT22;9715;48.816;10.520;2022-07-03T02:47:37;15.50;99.90
19166;DHT22;9715;48.816;10.520;2022-07-03T02:50:11;15.60;99.90
19166;DHT22;9715;48.816;10.520;2022-07-03T02:52:52;15.60;99.90
19166;DHT22;9715;48.816;10.520;2022-07-03T02:55:34;15.60;99.90
19166;DHT22;9715;48.816;10.520;2022-07-03T02:58:21;15.60;99.90
19166;DHT22;9715;48.816;10.520;2022-07-03T03:00:58;15.70;99.90
19166;DHT22;9715;48.816;10.520;2022-07-03T03:03:29;15.70;99.90
19166;DHT22;9715;48.816;10.520;2022-07-03T03:06:02;15.60;99.90
19166;DHT22;9715;48.816;10.520;2022-07-03T03:08:36;15.50;99.90
19166;DHT22;9715;48.816;10.520;2022-07-03T03:11:07;15.40;99.90
19166;DHT22;9715;48.816;10.520;2022-07-03T03:13:36;15.30;99.90
19166;DHT22;9715;48.816;10.520;2022-07-03T03:16:09;15.30;99.90
19166;DHT22;9715;48.816;10.520;2022-07-03T03:18:40;15.30;99.90
19166;DHT22;9715;48.816;10.520;2022-07-03T03:21:10;15.10;99.90
19166;DHT22;9715;48.816;10.520;2022-07-03T03:23:43;15.10;99.90
19166;DHT22;9715;48.816;10.520;2022-07-03T03:26:17;15.10;99.90
19166;DHT22;9715;48.816;10.520;2022-07-03T03:28:46;15.00;99.90
19166;DHT22;9715;48.816;10.520;2022-07-03T03:31:17;15.00;99.90
19166;DHT22;9715;48.816;10.520;2022-07-03T03:33:48;15.10;99.90
19166;DHT22;9715;48.816;10.520;2022-07-03T03:36:18;15.20;99.90
19166;DHT22;9715;48.816;10.520;2022-07-03T03:38:47;15.20;99.90
19166;DHT22;9715;48.816;10.520;2022-07-03T03:41:16;15.20;99.90
19166;DHT22;9715;48.816;10.520;2022-07-03T03:43:45;15.10;99.90
19166;DHT22;9715;48.816;10.520;2022-07-03T03:46:13;15.20;99.90
19166;DHT22;9715;48.816;10.520;2022-07-03T03:48:44;15.20;99.90
19166;DHT22;9715;48.816;10.520;2022-07-03T03:51:12;15.20;99.90
19166;DHT22;9715;48.816;10.520;2022-07-03T03:53:40;15.20;99.90
19166;DHT22;9715;48.816;10.520;2022-07-03T03:56:10;15.30;99.90
19166;DHT22;9715;48.816;10.520;2022-07-03T03:58:42;15.30;99.90
19166;DHT22;9715;48.816;10.520;2022-07-03T04:01:11;15.40;99.90
19166;DHT22;9715;48.816;10.520;2022-07-03T04:03:40;15.50;99.90
19166;DHT22;9715;48.816;10.520;2022-07-03T04:06:10;15.60;99.90
19166;DHT22;9715;48.816;10.520;2022-07-03T04:08:38;15.70;99.90
19166;DHT22;9715;48.816;10.520;2022-07-03T04:11:07;15.70;99.90
19166;DHT22;9715;48.816;10.520;2022-07-03T04:13:35;15.80;99.90
19166;DHT22;9715;48.816;10.520;2022-07-03T04:16:04;15.90;99.90
19166;DHT22;9715;48.816;10.520;2022-07-03T04:18:32;16.00;99.90
19166;DHT22;9715;48.816;10.520;2022-07-03T04:21:01;16.10;99.90
19166;DHT22;9715;48.816;10.520;2022-07-03T04:23:31;16.20;99.90
19166;DHT22;9715;48.816;10.520;2022-07-03T04:26:03;16.20;99.90
19166;DHT22;9715;48.816;10.520;2022-07-03T04:28:32;16.30;99.90
19166;DHT22;9715;48.816;10.520;2022-07-03T04:31:01;16.30;99.90
19166;DHT22;9715;48.816;10.520;2022-07-03T04:33:29;16.10;99.90
19166;DHT22;9715;48.816;10.520;2022-07-03T04:35:57;16.10;99.90
19166;DHT22;9715;48.816;10.520;2022-07-03T04:38:26;16.00;99.90
19166;DHT22;9715;48.816;10.520;2022-07-03T04:40:55;15.90;99.90
19166;DHT22;9715;48.816;10.520;2022-07-03T04:43:24;15.80;99.90
19166;DHT22;9715;48.816;10.520;2022-07-03T04:45:52;15.70;99.90
19166;DHT22;9715;48.816;10.520;2022-07-03T04:48:21;15.70;99.90
19166;DHT22;9715;48.816;10.520;2022-07-03T04:50:49;15.60;99.90
19166;DHT22;9715;48.816;10.520;2022-07-03T04:53:17;15.60;99.90
19166;DHT22;9715;48.816;10.520;2022-07-03T04:55:46;15.70;99.90
19166;DHT22;9715;48.816;10.520;2022-07-03T04:58:16;15.70;99.90
19166;DHT22;9715;48.816;10.520;2022-07-03T05:00:45;15.80;99.90
19166;DHT22;9715;48.816;10.520;2022-07-03T05:03:13;15.80;99.90
19166;DHT22;9715;48.816;10.520;2022-07-03T05:05:42;15.70;99.90
19166;DHT22;9715;48.816;10.520;2022-07-03T05:08:10;15.70;99.90
19166;DHT22;9715;48.816;10.520;2022-07-03T05:10:39;15.80;99.90
19166;DHT22;9715;48.816;10.520;2022-07-03T05:13:07;15.80;99.90
19166;DHT22;9715;48.816;10.520;2022-07-03T05:15:37;15.80;99.90
19166;DHT22;9715;48.816;10.520;2022-07-03T05:18:05;15.90;99.90
19166;DHT22;9715;48.816;10.520;2022-07-03T05:20:33;16.00;99.90
19166;DHT22;9715;48.816;10.520;2022-07-03T05:23:02;16.10;99.90
19166;DHT22;9715;48.816;10.520;2022-07-03T05:25:31;16.30;99.90
19166;DHT22;9715;48.816;10.520;2022-07-03T05:28:01;16.40;99.90
19166;DHT22;9715;48.816;10.520;2022-07-03T05:30:29;16.40;99.90
19166;DHT22;9715;48.816;10.520;2022-07-03T05:32:58;16.30;99.90
19166;DHT22;9715;48.816;10.520;2022-07-03T05:35:26;16.40;99.90
19166;DHT22;9715;48.816;10.520;2022-07-03T05:37:55;16.40;99.90
19166;DHT22;9715;48.816;10.520;2022-07-03T05:40:23;16.40;99.90
19166;DHT22;9715;48.816;10.520;2022-07-03T05:42:52;16.50;99.90
19166;DHT22;9715;48.816;10.520;2022-07-03T05:45:20;16.60;99.90
19166;DHT22;9715;48.816;10.520;2022-07-03T05:47:49;16.70;99.90
19166;DHT22;9715;48.816;10.520;2022-07-03T05:50:18;16.80;99.90
19166;DHT22;9715;48.816;10.520;2022-07-03T05:52:47;16.80;99.90
19166;DHT22;9715;48.816;10.520;2022-07-03T05:55:15;16.90;99.90
19166;DHT22;9715;48.816;10.520;2022-07-03T05:57:43;17.00;99.90
19166;DHT22;9715;48.816;10.520;2022-07-03T06:00:13;17.10;99.90
19166;DHT22;9715;48.816;10.520;2022-07-03T06:02:41;17.20;99.90
19166;DHT22;9715;48.816;10.520;2022-07-03T06:05:10;17.30;99.90
19166;DHT22;9715;48.816;10.520;2022-07-03T06:07:40;17.30;99.90
19166;DHT22;9715;48.816;10.520;2022-07-03T06:10:08;17.40;99.90
19166;DHT22;9715;48.816;10.520;2022-07-03T06:12:36;17.50;99.90
19166;DHT22;9715;48.816;10.520;2022-07-03T06:15:05;17.60;99.90
19166;DHT22;9715;48.816;10.520;2022-07-03T06:17:34;17.70;99.90
19166;DHT22;9715;48.816;10.520;2022-07-03T06:20:04;17.70;99.90
19166;DHT22;9715;48.816;10.520;2022-07-03T06:22:32;17.80;99.90
19166;DHT22;9715;48.816;10.520;2022-07-03T06:25:02;17.90;99.90
19166;DHT22;9715;48.816;10.520;2022-07-03T06:27:31;18.00;99.90
19166;DHT22;9715;48.816;10.520;2022-07-03T06:29:59;18.10;99.90
19166;DHT22;9715;48.816;10.520;2022-07-03T06:32:28;18.20;99.90
19166;DHT22;9715;48.816;10.520;2022-07-03T06:34:56;18.20;99.90
19166;DHT22;9715;48.816;10.520;2022-07-03T06:37:24;18.30;99.90
19166;DHT22;9715;48.816;10.520;2022-07-03T06:39:53;18.40;99.90
19166;DHT22;9715;48.816;10.520;2022-07-03T06:42:22;18.60;99.90
19166;DHT22;9715;48.816;10.520;2022-07-03T06:44:51;18.70;99.90
19166;DHT22;9715;48.816;10.520;2022-07-03T06:47:19;18.80;99.90
19166;DHT22;9715;48.816;10.520;2022-07-03T06:49:48;18.90;99.90
19166;DHT22;9715;48.816;10.520;2022-07-03T06:52:16;19.10;99.90
19166;DHT22;9715;48.816;10.520;2022-07-03T06:54:44;19.20;99.90
19166;DHT22;9715;48.816;10.520;2022-07-03T06:57:13;19.30;99.90
19166;DHT22;9715;48.816;10.520;2022-07-03T06:59:43;19.40;99.90
19166;DHT22;9715;48.816;10.520;2022-07-03T07:02:12;19.50;99.90
19166;DHT22;9715;48.816;10.520;2022-07-03T07:04:40;19.50;99.90
19166;DHT22;9715;48.816;10.520;2022-07-03T07:07:09;19.60;99.90
19166;DHT22;9715;48.816;10.520;2022-07-03T07:09:37;19.70;99.90
19166;DHT22;9715;48.816;10.520;2022-07-03T07:12:07;19.80;99.90
19166;DHT22;9715;48.816;10.520;2022-07-03T07:14:35;19.90;99.90
19166;DHT22;9715;48.816;10.520;2022-07-03T07:17:05;20.00;99.90
19166;DHT22;9715;48.816;10.520;2022-07-03T07:19:34;20.10;99.90
19166;DHT22;9715;48.816;10.520;2022-07-03T07:22:03;20.10;99.90
19166;DHT22;9715;48.816;10.520;2022-07-03T07:24:31;20.20;99.90
19166;DHT22;9715;48.816;10.520;2022-07-03T07:27:00;20.30;99.90
19166;DHT22;9715;48.816;10.520;2022-07-03T07:29:28;20.30;99.90
19166;DHT22;9715;48.816;10.520;2022-07-03T07:31:57;20.40;99.90
19166;DHT22;9715;48.816;10.520;2022-07-03T07:34:27;20.50;99.90
19166;DHT22;9715;48.816;10.520;2022-07-03T07:36:55;20.60;99.90
19166;DHT22;9715;48.816;10.520;2022-07-03T07:39:23;20.70;99.90
19166;DHT22;9715;48.816;10.520;2022-07-03T07:41:52;20.80;99.90
19166;DHT22;9715;48.816;10.520;2022-07-03T07:44:20;21.00;99.90
19166;DHT22;9715;48.816;10.520;2022-07-03T07:46:49;21.10;99.90
19166;DHT22;9715;48.816;10.520;2022-07-03T07:49:17;21.20;99.90
19166;DHT22;9715;48.816;10.520;2022-07-03T07:51:47;21.20;99.90
19166;DHT22;9715;48.816;10.520;2022-07-03T07:54:16;21.30;99.90
19166;DHT22;9715;48.816;10.520;2022-07-03T07:56:46;21.30;99.90
19166;DHT22;9715;48.816;10.520;2022-07-03T07:59:14;21.40;99.90
19166;DHT22;9715;48.816;10.520;2022-07-03T08:01:43;21.50;99.90
19166;DHT22;9715;48.816;10.520;2022-07-03T08:04:28;21.60;99.90
19166;DHT22;9715;48.816;10.520;2022-07-03T08:07:15;21.70;99.90
19166;DHT22;9715;48.816;10.520;2022-07-03T08:09:43;21.70;99.90
19166;DHT22;9715;48.816;10.520;2022-07-03T08:12:12;21.80;99.90
19166;DHT22;9715;48.816;10.520;2022-07-03T08:14:40;21.80;99.90
19166;DHT22;9715;48.816;10.520;2022-07-03T08:17:09;21.90;99.90
19166;DHT22;9715;48.816;10.520;2022-07-03T08:19:37;22.00;99.90
19166;DHT22;9715;48.816;10.520;2022-07-03T08:22:05;22.10;99.90
19166;DHT22;9715;48.816;10.520;2022-07-03T08:24:35;22.20;99.90
19166;DHT22;9715;48.816;10.520;2022-07-03T08:27:10;22.20;99.90
19166;DHT22;9715;48.816;10.520;2022-07-03T08:29:38;22.30;99.90
19166;DHT22;9715;48.816;10.520;2022-07-03T08:32:07;22.40;99.90
19166;DHT22;9715;48.816;10.520;2022-07-03T08:34:36;22.50;99.90
19166;DHT22;9715;48.816;10.520;2022-07-03T08:37:04;22.70;99.90
19166;DHT22;9715;48.816;10.520;2022-07-03T08:39:32;22.80;99.90
19166;DHT22;9715;48.816;10.520;2022-07-03T08:42:03;22.90;99.90
19166;DHT22;9715;48.816;10.520;2022-07-03T08:44:32;22.90;99.90
19166;DHT22;9715;48.816;10.520;2022-07-03T08:47:03;23.00;99.90
19166;DHT22;9715;48.816;10.520;2022-07-03T08:49:34;23.10;99.90
19166;DHT22;9715;48.816;10.520;2022-07-03T08:52:04;23.20;99.90
19166;DHT22;9715;48.816;10.520;2022-07-03T08:54:34;23.30;99.90
19166;DHT22;9715;48.816;10.520;2022-07-03T08:57:05;23.40;99.90
19166;DHT22;9715;48.816;10.520;2022-07-03T08:59:36;23.40;99.90
19166;DHT22;9715;48.816;10.520;2022-07-03T09:02:05;23.40;99.90
19166;DHT22;9715;48.816;10.520;2022-07-03T09:04:34;23.50;99.90
19166;DHT22;9715;48.816;10.520;2022-07-03T09:07:03;23.60;99.90
19166;DHT22;9715;48.816;10.520;2022-07-03T09:09:34;23.60;99.90
19166;DHT22;9715;48.816;10.520;2022-07-03T09:12:05;23.70;99.90
19166;DHT22;9715;48.816;10.520;2022-07-03T09:14:33;23.80;99.90
19166;DHT22;9715;48.816;10.520;2022-07-03T09:17:02;23.90;99.90
19166;DHT22;9715;48.816;10.520;2022-07-03T09:19:40;24.00;99.90
19166;DHT22;9715;48.816;10.520;2022-07-03T09:22:22;24.10;99.90
19166;DHT22;9715;48.816;10.520;2022-07-03T09:24:52;24.10;99.90
19166;DHT22;9715;48.816;10.520;2022-07-03T09:27:23;24.30;99.90
19166;DHT22;9715;48.816;10.520;2022-07-03T09:29:57;24.30;99.90
19166;DHT22;9715;48.816;10.520;2022-07-03T09:32:31;24.50;99.90
19166;DHT22;9715;48.816;10.520;2022-07-03T09:35:16;24.50;99.90
19166;DHT22;9715;48.816;10.520;2022-07-03T09:37:49;24.60;99.90
19166;DHT22;9715;48.816;10.520;2022-07-03T09:40:19;24.70;99.90
19166;DHT22;9715;48.816;10.520;2022-07-03T09:43:02;24.70;99.90
19166;DHT22;9715;48.816;10.520;2022-07-03T09:45:51;24.70;99.90
19166;DHT22;9715;48.816;10.520;2022-07-03T09:48:25;24.80;99.90
19166;DHT22;9715;48.816;10.520;2022-07-03T09:51:19;24.90;99.90
19166;DHT22;9715;48.816;10.520;2022-07-03T09:53:53;25.10;99.90
19166;DHT22;9715;48.816;10.520;2022-07-03T09:56:25;25.10;99.90
19166;DHT22;9715;48.816;10.520;2022-07-03T09:59:09;25.20;99.90
19166;DHT22;9715;48.816;10.520;2022-07-03T10:01:39;25.40;99.90
19166;DHT22;9715;48.816;10.520;2022-07-03T10:04:15;25.40;99.90
19166;DHT22;9715;48.816;10.520;2022-07-03T10:06:51;25.60;99.90
19166;DHT22;9715;48.816;10.520;2022-07-03T10:09:22;25.70;99.90
19166;DHT22;9715;48.816;10.520;2022-07-03T10:11:51;25.80;99.90
19166;DHT22;9715;48.816;10.520;2022-07-03T10:14:23;25.90;99.90
19166;DHT22;9715;48.816;10.520;2022-07-03T10:16:52;26.10;99.90
19166;DHT22;9715;48.816;10.520;2022-07-03T10:19:23;26.20;99.90
19166;DHT22;9715;48.816;10.520;2022-07-03T10:21:54;26.30;99.90
19166;DHT22;9715;48.816;10.520;2022-07-03T10:24:24;26.40;99.90
19166;DHT22;9715;48.816;10.520;2022-07-03T10:26:54;26.50;99.90
19166;DHT22;9715;48.816;10.520;2022-07-03T10:29:26;26.60;99.90
19166;DHT22;9715;48.816;10.520;2022-07-03T10:31:56;26.70;99.90
19166;DHT22;9715;48.816;10.520;2022-07-03T10:34:26;26.80;99.90
19166;DHT22;9715;48.816;10.520;2022-07-03T10:36:58;26.90;99.90
19166;DHT22;9715;48.816;10.520;2022-07-03T10:39:35;27.00;99.90
19166;DHT22;9715;48.816;10.520;2022-07-03T10:42:09;27.20;99.90
19166;DHT22;9715;48.816;10.520;2022-07-03T10:45:09;27.30;99.90
19166;DHT22;9715;48.816;10.520;2022-07-03T10:47:46;27.50;99.90
19166;DHT22;9715;48.816;10.520;2022-07-03T10:50:16;27.60;99.90
19166;DHT22;9715;48.816;10.520;2022-07-03T10:52:45;27.60;99.90
19166;DHT22;9715;48.816;10.520;2022-07-03T10:55:15;27.70;99.90
19166;DHT22;9715;48.816;10.520;2022-07-03T10:58:06;27.90;99.90
19166;DHT22;9715;48.816;10.520;2022-07-03T11:00:54;28.10;99.90
19166;DHT22;9715;48.816;10.520;2022-07-03T11:03:54;28.20;98.40
19166;DHT22;9715;48.816;10.520;2022-07-03T11:09:23;28.40;99.90
19166;DHT22;9715;48.816;10.520;2022-07-03T11:11:51;28.50;99.70
19166;DHT22;9715;48.816;10.520;2022-07-03T11:14:24;28.60;99.10
19166;DHT22;9715;48.816;10.520;2022-07-03T11:17:18;28.60;98.60
19166;DHT22;9715;48.816;10.520;2022-07-03T11:19:48;28.70;98.60
19166;DHT22;9715;48.816;10.520;2022-07-03T11:22:33;28.80;98.50
19166;DHT22;9715;48.816;10.520;2022-07-03T11:25:08;28.90;92.90
19166;DHT22;9715;48.816;10.520;2022-07-03T11:27:37;29.00;95.30
19166;DHT22;9715;48.816;10.520;2022-07-03T11:30:06;29.00;90.50
19166;DHT22;9715;48.816;10.520;2022-07-03T11:32:52;29.00;90.20
19166;DHT22;9715;48.816;10.520;2022-07-03T11:35:50;29.00;90.50
19166;DHT22;9715;48.816;10.520;2022-07-03T11:38:28;29.00;89.10
19166;DHT22;9715;48.816;10.520;2022-07-03T11:40:58;29.10;81.60
19166;DHT22;9715;48.816;10.520;2022-07-03T11:43:29;29.00;81.20
19166;DHT22;9715;48.816;10.520;2022-07-03T11:45:57;29.00;83.60
19166;DHT22;9715;48.816;10.520;2022-07-03T11:48:28;29.00;83.50
19166;DHT22;9715;48.816;10.520;2022-07-03T11:51:00;29.10;85.70
19166;DHT22;9715;48.816;10.520;2022-07-03T11:53:30;29.20;78.90
19166;DHT22;9715;48.816;10.520;2022-07-03T11:56:00;29.20;77.70
19166;DHT22;9715;48.816;10.520;2022-07-03T11:58:44;29.30;72.40
19166;DHT22;9715;48.816;10.520;2022-07-03T12:01:29;29.20;72.00
19166;DHT22;9715;48.816;10.520;2022-07-03T12:04:09;29.20;73.50
19166;DHT22;9715;48.816;10.520;2022-07-03T12:06:40;29.30;76.30
19166;DHT22;9715;48.816;10.520;2022-07-03T12:09:16;29.40;77.20
19166;DHT22;9715;48.816;10.520;2022-07-03T12:11:55;29.60;78.00
19166;DHT22;9715;48.816;10.520;2022-07-03T12:14:34;29.70;73.50
19166;DHT22;9715;48.816;10.520;2022-07-03T12:17:04;29.70;73.80
19166;DHT22;9715;48.816;10.520;2022-07-03T12:19:34;29.70;75.40
19166;DHT22;9715;48.816;10.520;2022-07-03T12:22:04;29.70;74.40
19166;DHT22;9715;48.816;10.520;2022-07-03T12:24:32;29.80;70.80
19166;DHT22;9715;48.816;10.520;2022-07-03T12:27:05;29.80;70.70
19166;DHT22;9715;48.816;10.520;2022-07-03T12:29:35;29.90;75.30
19166;DHT22;9715;48.816;10.520;2022-07-03T12:32:08;30.00;73.40
19166;DHT22;9715;48.816;10.520;2022-07-03T12:34:40;29.80;74.50
19166;DHT22;9715;48.816;10.520;2022-07-03T12:37:09;29.70;75.80
19166;DHT22;9715;48.816;10.520;2022-07-03T12:39:47;29.70;78.00
19166;DHT22;9715;48.816;10.520;2022-07-03T12:42:17;30.00;77.10
19166;DHT22;9715;48.816;10.520;2022-07-03T12:44:56;30.10;80.80
19166;DHT22;9715;48.816;10.520;2022-07-03T12:47:25;30.30;83.20
19166;DHT22;9715;48.816;10.520;2022-07-03T12:50:02;30.50;84.80
19166;DHT22;9715;48.816;10.520;2022-07-03T12:52:32;30.60;86.70
19166;DHT22;9715;48.816;10.520;2022-07-03T12:55:02;30.60;85.30
19166;DHT22;9715;48.816;10.520;2022-07-03T12:57:31;30.70;84.90
19166;DHT22;9715;48.816;10.520;2022-07-03T13:00:17;30.90;84.30
19166;DHT22;9715;48.816;10.520;2022-07-03T13:02:48;31.00;81.30
19166;DHT22;9715;48.816;10.520;2022-07-03T13:05:19;31.00;81.30
19166;DHT22;9715;48.816;10.520;2022-07-03T13:07:50;31.10;82.30
19166;DHT22;9715;48.816;10.520;2022-07-03T13:10:19;31.40;80.50
19166;DHT22;9715;48.816;10.520;2022-07-03T13:12:50;31.50;83.20
19166;DHT22;9715;48.816;10.520;2022-07-03T13:15:19;31.70;83.30
19166;DHT22;9715;48.816;10.520;2022-07-03T13:17:57;32.00;81.00
19166;DHT22;9715;48.816;10.520;2022-07-03T13:20:28;32.20;80.00
19166;DHT22;9715;48.816;10.520;2022-07-03T13:22:58;32.30;81.10
19166;DHT22;9715;48.816;10.520;2022-07-03T13:25:27;32.50;81.70
19166;DHT22;9715;48.816;10.520;2022-07-03T13:28:03;32.70;81.20
19166;DHT22;9715;48.816;10.520;2022-07-03T13:30:32;32.90;81.90
19166;DHT22;9715;48.816;10.520;2022-07-03T13:33:01;33.00;81.00
19166;DHT22;9715;48.816;10.520;2022-07-03T13:35:31;32.80;80.50
19166;DHT22;9715;48.816;10.520;2022-07-03T13:37:59;32.80;78.90
19166;DHT22;9715;48.816;10.520;2022-07-03T13:40:28;32.90;78.50
19166;DHT22;9715;48.816;10.520;2022-07-03T13:42:56;33.00;81.50
19166;DHT22;9715;48.816;10.520;2022-07-03T13:45:25;33.10;81.50
19166;DHT22;9715;48.816;10.520;2022-07-03T13:47:54;33.10;78.70
19166;DHT22;9715;48.816;10.520;2022-07-03T13:50:22;33.10;80.10
19166;DHT22;9715;48.816;10.520;2022-07-03T13:52:52;33.10;80.80
19166;DHT22;9715;48.816;10.520;2022-07-03T13:55:20;33.20;81.30
19166;DHT22;9715;48.816;10.520;2022-07-03T13:57:48;33.40;80.00
19166;DHT22;9715;48.816;10.520;2022-07-03T14:00:17;33.60;79.50
19166;DHT22;9715;48.816;10.520;2022-07-03T14:02:46;33.70;79.00
19166;DHT22;9715;48.816;10.520;2022-07-03T14:05:14;33.90;76.80
19166;DHT22;9715;48.816;10.520;2022-07-03T14:07:43;34.00;76.00
19166;DHT22;9715;48.816;10.520;2022-07-03T14:10:13;34.00;75.50
19166;DHT22;9715;48.816;10.520;2022-07-03T14:12:41;33.60;75.30
19166;DHT22;9715;48.816;10.520;2022-07-03T14:15:10;33.00;76.00
19166;DHT22;9715;48.816;10.520;2022-07-03T14:17:38;32.80;76.80
19166;DHT22;9715;48.816;10.520;2022-07-03T14:20:07;33.00;77.70
19166;DHT22;9715;48.816;10.520;2022-07-03T14:22:36;33.30;74.40
19166;DHT22;9715;48.816;10.520;2022-07-03T14:25:05;33.50;71.40
19166;DHT22;9715;48.816;10.520;2022-07-03T14:27:35;33.70;69.40
19166;DHT22;9715;48.816;10.520;2022-07-03T14:30:21;34.00;73.10
19166;DHT22;9715;48.816;10.520;2022-07-03T14:33:06;34.20;71.90
19166;DHT22;9715;48.816;10.520;2022-07-03T14:35:35;34.40;73.00
19166;DHT22;9715;48.816;10.520;2022-07-03T14:38:04;34.60;71.20
19166;DHT22;9715;48.816;10.520;2022-07-03T14:40:32;34.70;71.90
19166;DHT22;9715;48.816;10.520;2022-07-03T14:43:02;34.80;71.40
19166;DHT22;9715;48.816;10.520;2022-07-03T14:45:30;34.70;70.60
19166;DHT22;9715;48.816;10.520;2022-07-03T14:47:58;34.80;71.20
19166;DHT22;9715;48.816;10.520;2022-07-03T14:50:27;34.80;71.20
19166;DHT22;9715;48.816;10.520;2022-07-03T14:52:55;34.90;68.30
19166;DHT22;9715;48.816;10.520;2022-07-03T14:55:29;34.90;60.70
19166;DHT22;9715;48.816;10.520;2022-07-03T14:58:06;34.90;64.20
19166;DHT22;9715;48.816;10.520;2022-07-03T15:00:41;34.90;68.50
19166;DHT22;9715;48.816;10.520;2022-07-03T15:03:15;35.10;69.20
19166;DHT22;9715;48.816;10.520;2022-07-03T15:05:47;35.10;63.40
19166;DHT22;9715;48.816;10.520;2022-07-03T15:08:47;35.00;64.30
19166;DHT22;9715;48.816;10.520;2022-07-03T15:11:21;34.90;60.60
19166;DHT22;9715;48.816;10.520;2022-07-03T15:14:08;34.60;57.70
19166;DHT22;9715;48.816;10.520;2022-07-03T15:16:39;34.40;59.30
19166;DHT22;9715;48.816;10.520;2022-07-03T15:19:09;34.30;59.70
19166;DHT22;9715;48.816;10.520;2022-07-03T15:21:39;34.30;59.20
19166;DHT22;9715;48.816;10.520;2022-07-03T15:24:09;34.10;59.50
19166;DHT22;9715;48.816;10.520;2022-07-03T15:26:40;33.80;59.80
19166;DHT22;9715;48.816;10.520;2022-07-03T15:29:14;33.60;59.60
19166;DHT22;9715;48.816;10.520;2022-07-03T15:31:43;33.50;60.00
19166;DHT22;9715;48.816;10.520;2022-07-03T15:34:12;33.50;60.70
19166;DHT22;9715;48.816;10.520;2022-07-03T15:36:44;33.50;62.10
19166;DHT22;9715;48.816;10.520;2022-07-03T15:39:17;33.60;61.40
19166;DHT22;9715;48.816;10.520;2022-07-03T15:41:56;33.80;61.00
19166;DHT22;9715;48.816;10.520;2022-07-03T15:44:36;33.90;61.60
19166;DHT22;9715;48.816;10.520;2022-07-03T15:47:16;33.90;61.30
19166;DHT22;9715;48.816;10.520;2022-07-03T15:49:52;33.90;60.50
19166;DHT22;9715;48.816;10.520;2022-07-03T15:52:23;33.90;59.50
19166;DHT22;9715;48.816;10.520;2022-07-03T15:54:56;33.90;59.50
19166;DHT22;9715;48.816;10.520;2022-07-03T15:57:32;33.70;60.30
19166;DHT22;9715;48.816;10.520;2022-07-03T16:00:05;33.50;60.20
19166;DHT22;9715;48.816;10.520;2022-07-03T16:02:48;33.50;62.60
19166;DHT22;9715;48.816;10.520;2022-07-03T16:05:18;33.50;62.10
19166;DHT22;9715;48.816;10.520;2022-07-03T16:07:52;33.10;61.80